Adirondack Regional Airport Saranac Lake US
ICAO: KSLK
IATA: SLK
Category: Medium
Scheduled Services: Yes

Elevation: 1663 ft
TransAlt. 18000 ft.

Airport Communications:
ASOS:124.175
BOSTON CNTR:120.35
BURLINGTON RDO:109.2
CTAF/UNICOM:123

KSLK Zoom In..

If you have problems with the map follow the link
https://www.worldairports.se/pages/airport.php?
ICAO=KSLK

Runways:

(A) RW 05 length 6573 ft width 150 ft
---- / hdg 49

(B) RW 09 length 3998 ft width 100 ft
---- / hdg 93

(C) RW 23 length 6573 ft width 150 ft
ILS 108.90 / hdg 229

(D) RW 27 length 3998 ft width 100 ft
---- / hdg 273

Location; KSLK
Day. 06 / Time. 01.51 Zulu
* Altimeter: 29.86
* Temperature: -07° c. -19.4°f.
* Wind from: 290° Speed 07 kn with Gusts up to 15 kn.
Dewpoint: -11° c.
Visibility: 10 Statute Miles.
Clouds: Overcast 2000 ft.

KSLK 060151Z AUTO 29007G15KT 260V350 10SM OVC020 M07/M11 A2986 RMK AO2 SLP135 T10671106


Wind From 290°
Speed 07 kn.

 
 
jpsmedia worldairports.se 2019   terms of use